createdAt,value
2022-10-28T00:00:19.850Z,83.09
2022-10-28T00:03:28.328Z,83.48
2022-10-28T00:06:38.453Z,83.71
2022-10-28T00:09:46.908Z,83.46
2022-10-28T00:12:55.411Z,83.16
2022-10-28T00:16:10.339Z,83.15
2022-10-28T00:19:19.184Z,83.60
2022-10-28T00:22:29.554Z,82.90
2022-10-28T00:25:37.687Z,82.94
2022-10-28T00:28:48.884Z,82.84
2022-10-28T00:31:57.105Z,83.25
2022-10-28T00:35:06.660Z,83.22
2022-10-28T00:38:16.213Z,84.00
2022-10-28T00:41:27.541Z,83.41
2022-10-28T00:44:56.362Z,83.02
2022-10-28T00:48:07.394Z,83.61
2022-10-28T00:51:17.750Z,83.59
2022-10-28T00:54:28.869Z,83.51
2022-10-28T00:57:40.405Z,84.08
2022-10-28T01:00:48.585Z,84.28
2022-10-28T01:03:58.985Z,83.84
2022-10-28T01:07:07.983Z,84.13
2022-10-28T01:10:18.060Z,83.42
2022-10-28T01:13:41.664Z,83.47
2022-10-28T01:17:09.505Z,83.19
2022-10-28T01:21:15.098Z,83.54
2022-10-28T01:24:57.625Z,83.76
2022-10-28T01:28:55.121Z,84.08
2022-10-28T01:32:13.389Z,83.35
2022-10-28T01:35:32.271Z,83.74
2022-10-28T01:38:52.938Z,84.09
2022-10-28T01:42:21.680Z,83.32
2022-10-28T01:45:38.271Z,84.16
2022-10-28T01:48:55.379Z,82.93
2022-10-28T01:52:07.911Z,83.38
2022-10-28T01:55:22.540Z,83.15
2022-10-28T01:58:34.832Z,83.32
2022-10-28T02:01:43.604Z,83.35
2022-10-28T02:05:03.081Z,83.19
2022-10-28T02:08:36.969Z,82.87
2022-10-28T02:12:12.186Z,82.33
2022-10-28T02:15:39.642Z,81.91
2022-10-28T02:19:02.423Z,82.00
2022-10-28T02:22:22.308Z,81.28
2022-10-28T02:25:40.565Z,81.91
2022-10-28T02:28:58.164Z,81.36
2022-10-28T02:32:12.487Z,81.50
2022-10-28T02:35:31.812Z,81.69
2022-10-28T02:38:50.294Z,81.63
2022-10-28T02:42:04.885Z,81.94
2022-10-28T02:45:19.093Z,81.75
2022-10-28T02:48:34.661Z,81.90
2022-10-28T02:51:49.926Z,81.74
2022-10-28T02:55:04.505Z,81.88
2022-10-28T02:58:13.391Z,82.27
2022-10-28T03:01:21.772Z,81.93
2022-10-28T03:04:31.076Z,82.85
2022-10-28T03:07:39.360Z,82.83
2022-10-28T03:10:48.961Z,81.88
2022-10-28T03:13:57.178Z,82.54
2022-10-28T03:17:05.724Z,82.04
2022-10-28T03:20:14.601Z,82.42
2022-10-28T03:23:22.785Z,82.37
2022-10-28T03:26:32.302Z,82.17
2022-10-28T03:29:44.970Z,81.78
2022-10-28T03:32:54.787Z,82.18
2022-10-28T03:36:03.301Z,82.34
2022-10-28T03:39:11.836Z,81.71
2022-10-28T03:42:21.363Z,81.79
2022-10-28T03:48:42.745Z,82.66
2022-10-28T03:51:50.980Z,82.54
2022-10-28T03:54:59.744Z,82.21
2022-10-28T03:58:09.341Z,81.98
2022-10-28T04:01:18.031Z,82.49
2022-10-28T04:04:29.858Z,82.93
2022-10-28T04:07:39.095Z,81.70
2022-10-28T04:10:48.508Z,82.06
2022-10-28T04:13:58.248Z,82.10
2022-10-28T04:17:06.482Z,82.48
2022-10-28T04:20:14.857Z,82.36
2022-10-28T04:23:23.084Z,83.02
2022-10-28T04:26:31.937Z,82.52
2022-10-28T04:29:41.614Z,82.74
2022-10-28T04:32:49.933Z,82.77
2022-10-28T04:35:58.543Z,82.32
2022-10-28T04:39:06.820Z,82.32
2022-10-28T04:42:15.237Z,82.66
2022-10-28T04:45:24.936Z,83.01
2022-10-28T04:48:33.318Z,82.57
2022-10-28T04:51:41.601Z,82.88
2022-10-28T04:54:49.995Z,82.57
2022-10-28T04:58:00.337Z,82.83
2022-10-28T05:01:11.782Z,83.51
2022-10-28T05:04:20.271Z,83.11
2022-10-28T05:07:28.687Z,83.71
2022-10-28T05:10:36.942Z,83.02
2022-10-28T05:13:46.237Z,83.33
2022-10-28T05:16:56.010Z,83.51
2022-10-28T05:20:05.406Z,83.35
2022-10-28T05:23:13.829Z,82.75
2022-10-28T05:26:22.165Z,83.06
2022-10-28T05:29:33.346Z,83.30
2022-10-28T05:32:43.229Z,83.38
2022-10-28T05:35:52.065Z,83.52
2022-10-28T05:39:00.286Z,83.22
2022-10-28T05:42:08.505Z,83.55
2022-10-28T05:45:17.020Z,83.57
2022-10-28T05:48:27.159Z,83.37
2022-10-28T05:51:35.627Z,82.70
2022-10-28T05:54:43.924Z,83.35
2022-10-28T05:57:53.843Z,83.86
2022-10-28T06:01:02.302Z,83.63
2022-10-28T06:04:12.101Z,82.26
2022-10-28T06:07:20.538Z,82.04
2022-10-28T06:10:29.258Z,81.99
2022-10-28T06:13:36.062Z,81.57
2022-10-28T06:16:45.601Z,81.38
2022-10-28T06:19:55.314Z,82.05
2022-10-28T06:23:03.638Z,80.70
2022-10-28T06:26:12.218Z,81.00
2022-10-28T06:29:20.588Z,80.42
2022-10-28T06:32:28.980Z,79.61
2022-10-28T06:35:38.805Z,78.66
2022-10-28T06:38:47.057Z,77.97
2022-10-28T06:41:55.370Z,78.01
2022-10-28T06:45:04.866Z,77.56
2022-10-28T06:48:17.384Z,76.46
2022-10-28T06:51:27.241Z,76.20
2022-10-28T06:54:35.593Z,75.76
2022-10-28T06:57:43.914Z,75.01
2022-10-28T07:00:53.096Z,75.01
2022-10-28T07:04:01.565Z,75.45
2022-10-28T07:07:11.429Z,74.90
2022-10-28T07:10:19.797Z,74.68
2022-10-28T07:13:28.951Z,73.98
2022-10-28T07:16:37.554Z,73.82
2022-10-28T07:19:45.718Z,74.17
2022-10-28T07:22:58.705Z,72.94
2022-10-28T07:26:07.580Z,71.95
2022-10-28T07:29:16.034Z,71.45
2022-10-28T07:32:24.325Z,70.97
2022-10-28T07:35:32.939Z,71.13
2022-10-28T07:38:42.578Z,71.12
2022-10-28T07:41:50.774Z,70.84
2022-10-28T07:44:58.979Z,69.72
2022-10-28T07:48:08.299Z,70.29
2022-10-28T07:51:17.304Z,68.95
2022-10-28T07:54:27.140Z,68.55
2022-10-28T07:57:36.260Z,68.42
2022-10-28T08:00:44.421Z,66.69
2022-10-28T08:03:52.758Z,67.23
2022-10-28T08:07:01.085Z,67.25
2022-10-28T08:10:11.260Z,67.22
2022-10-28T08:13:19.626Z,67.81
2022-10-28T08:16:29.061Z,64.08
2022-10-28T08:19:37.603Z,63.69
2022-10-28T08:22:45.929Z,62.15
2022-10-28T08:25:56.526Z,63.75
2022-10-28T08:29:04.726Z,63.05
2022-10-28T08:32:13.098Z,60.75
2022-10-28T08:35:21.578Z,60.28
2022-10-28T08:38:30.028Z,59.29
2022-10-28T08:41:46.406Z,60.37
2022-10-28T08:45:21.207Z,57.50
2022-10-28T08:48:34.776Z,53.84
2022-10-28T08:51:52.616Z,53.50
2022-10-28T08:55:07.507Z,52.74
2022-10-28T08:58:26.312Z,52.45
2022-10-28T09:01:45.771Z,50.66
2022-10-28T09:05:03.122Z,49.96
2022-10-28T09:08:22.555Z,48.94
2022-10-28T09:12:06.659Z,49.49
2022-10-28T09:15:33.232Z,48.88
2022-10-28T09:18:53.969Z,48.45
2022-10-28T09:22:21.945Z,49.72
2022-10-28T09:25:40.329Z,48.84
2022-10-28T09:29:05.563Z,50.69
2022-10-28T09:32:27.086Z,49.97
2022-10-28T09:35:42.965Z,49.68
2022-10-28T09:38:57.258Z,50.19
2022-10-28T09:42:05.943Z,50.59
2022-10-28T09:45:20.947Z,50.08
2022-10-28T09:48:35.429Z,51.39
2022-10-28T09:51:53.863Z,51.12
2022-10-28T09:55:17.177Z,49.69
2022-10-28T09:58:25.979Z,50.22
2022-10-28T10:01:37.263Z,51.46
2022-10-28T10:04:46.965Z,50.05
2022-10-28T10:08:00.338Z,49.55
2022-10-28T10:11:23.680Z,49.72
2022-10-28T10:14:43.292Z,50.04
2022-10-28T10:17:52.550Z,49.82
2022-10-28T10:21:02.713Z,49.24
2022-10-28T10:24:37.891Z,49.31
2022-10-28T10:27:53.071Z,49.92
2022-10-28T10:31:05.156Z,49.88
2022-10-28T10:34:25.117Z,50.55
2022-10-28T10:37:37.669Z,51.48
2022-10-28T10:40:51.666Z,51.21
2022-10-28T10:44:00.018Z,50.50
2022-10-28T10:47:21.074Z,51.85
2022-10-28T10:50:32.979Z,48.24
2022-10-28T10:53:48.274Z,48.05
2022-10-28T10:57:08.339Z,49.01
2022-10-28T11:00:23.370Z,48.76
2022-10-28T11:03:36.740Z,47.97
2022-10-28T11:06:51.569Z,47.10
2022-10-28T11:10:02.869Z,46.76
2022-10-28T11:13:28.256Z,46.68
2022-10-28T11:16:50.831Z,44.69
2022-10-28T11:20:08.388Z,45.62
2022-10-28T11:23:51.065Z,46.24
2022-10-28T11:27:18.120Z,45.07
2022-10-28T11:30:47.377Z,43.89
2022-10-28T11:34:16.942Z,44.01
2022-10-28T11:37:44.992Z,43.00
2022-10-28T11:41:11.434Z,42.87
2022-10-28T11:44:35.018Z,41.80
2022-10-28T11:48:15.153Z,42.19
2022-10-28T11:51:40.277Z,42.78
2022-10-28T11:55:07.927Z,43.09
2022-10-28T11:58:32.551Z,43.32
2022-10-28T12:01:58.325Z,42.70
2022-10-28T12:05:19.277Z,42.91
2022-10-28T12:08:45.061Z,42.54
2022-10-28T12:12:11.222Z,42.16
2022-10-28T12:15:29.928Z,43.79
2022-10-28T12:18:53.786Z,43.68
2022-10-28T12:22:12.182Z,43.94
2022-10-28T12:25:26.420Z,44.54
2022-10-28T12:28:44.876Z,46.78
2022-10-28T12:32:01.620Z,48.61
2022-10-28T12:35:20.109Z,49.85
2022-10-28T12:38:39.418Z,47.93
2022-10-28T12:42:01.045Z,47.87
2022-10-28T12:45:16.582Z,48.16
2022-10-28T12:48:34.902Z,47.87
2022-10-28T12:51:45.387Z,48.27
2022-10-28T12:55:02.850Z,47.36
2022-10-28T12:58:19.589Z,48.23
2022-10-28T13:01:31.879Z,47.13
2022-10-28T13:04:41.741Z,47.31
2022-10-28T13:08:20.435Z,46.60
2022-10-28T13:12:40.150Z,47.47
2022-10-28T13:16:10.137Z,47.94
2022-10-28T13:19:54.812Z,47.59
2022-10-28T13:23:21.244Z,47.37
2022-10-28T13:26:33.928Z,47.44
2022-10-28T13:29:45.167Z,48.05
2022-10-28T13:33:06.457Z,48.52
2022-10-28T13:36:22.174Z,49.29
2022-10-28T13:39:46.483Z,50.38
2022-10-28T13:42:55.257Z,49.88
2022-10-28T13:46:03.882Z,49.49
2022-10-28T13:49:26.360Z,50.64
2022-10-28T13:52:53.970Z,50.67
2022-10-28T13:56:46.033Z,49.95
2022-10-28T14:00:02.757Z,49.80
2022-10-28T14:03:21.059Z,49.58
2022-10-28T14:06:37.517Z,48.30
2022-10-28T14:09:46.543Z,48.57
2022-10-28T14:13:01.137Z,50.06
2022-10-28T14:16:29.196Z,48.92
2022-10-28T14:19:37.876Z,50.45
2022-10-28T14:22:46.950Z,50.38
2022-10-28T14:26:05.441Z,50.77
2022-10-28T14:29:30.202Z,49.54
2022-10-28T14:32:45.293Z,49.54
2022-10-28T14:36:28.538Z,49.26
2022-10-28T14:39:45.065Z,49.72
2022-10-28T14:43:19.376Z,49.24
2022-10-28T14:46:49.215Z,48.85
2022-10-28T14:50:03.241Z,48.43
2022-10-28T14:53:23.824Z,49.41
2022-10-28T14:56:33.574Z,48.97
2022-10-28T14:59:45.491Z,50.54
2022-10-28T15:02:56.651Z,51.69
2022-10-28T15:06:39.055Z,53.64
2022-10-28T15:09:53.541Z,55.55
2022-10-28T15:13:03.640Z,56.26
2022-10-28T15:16:23.144Z,56.85
2022-10-28T15:19:38.491Z,57.67
2022-10-28T15:22:46.905Z,57.70
2022-10-28T15:26:07.730Z,58.15
2022-10-28T15:29:18.107Z,58.27
2022-10-28T15:32:33.824Z,58.77
2022-10-28T15:35:43.886Z,59.20
2022-10-28T15:39:05.633Z,60.25
2022-10-28T15:42:33.030Z,62.57
2022-10-28T15:45:42.834Z,62.87
2022-10-28T15:48:53.751Z,63.56
2022-10-28T15:52:31.733Z,63.11
2022-10-28T15:59:21.356Z,62.41
2022-10-28T16:02:43.064Z,62.92
2022-10-28T16:05:54.720Z,62.38
2022-10-28T16:13:41.144Z,63.01
2022-10-28T16:20:44.371Z,62.47
2022-10-28T16:24:07.949Z,63.25
2022-10-28T16:27:21.469Z,63.81
2022-10-28T16:30:31.803Z,64.79
2022-10-28T16:33:40.440Z,65.28
2022-10-28T16:36:48.989Z,65.48
2022-10-28T16:40:30.995Z,65.79
2022-10-28T16:43:43.905Z,65.58
2022-10-28T16:46:53.854Z,65.54
2022-10-28T16:50:02.357Z,66.14
2022-10-28T16:53:15.105Z,66.52
2022-10-28T16:56:24.107Z,66.50
2022-10-28T16:59:32.880Z,66.98
2022-10-28T17:02:43.280Z,67.68
2022-10-28T17:05:52.036Z,68.24
2022-10-28T17:09:03.207Z,68.82
2022-10-28T17:12:16.035Z,68.58
2022-10-28T17:15:24.545Z,69.07
2022-10-28T17:18:34.314Z,69.29
2022-10-28T17:21:43.677Z,69.36
2022-10-28T17:24:52.515Z,69.16
2022-10-28T17:28:01.672Z,69.33
2022-10-28T17:31:14.508Z,70.37
2022-10-28T17:34:27.452Z,70.52
2022-10-28T17:37:59.778Z,71.09
2022-10-28T17:41:08.230Z,71.78
2022-10-28T17:44:17.871Z,71.71
2022-10-28T17:47:26.988Z,72.05
2022-10-28T17:50:39.685Z,72.31
2022-10-28T17:53:49.172Z,72.56
2022-10-28T17:56:58.362Z,73.42
2022-10-28T18:00:08.814Z,73.32
2022-10-28T18:03:20.812Z,74.51
2022-10-28T18:06:31.002Z,74.75
2022-10-28T18:09:40.553Z,74.82
2022-10-28T18:12:52.216Z,75.31
2022-10-28T18:16:05.678Z,75.11
2022-10-28T18:19:15.344Z,75.63
2022-10-28T18:25:38.937Z,75.49
2022-10-28T18:28:48.974Z,75.88
2022-10-28T18:31:57.607Z,75.69
2022-10-28T18:35:07.165Z,75.82
2022-10-28T18:38:17.095Z,75.65
2022-10-28T18:41:43.424Z,75.89
2022-10-28T18:45:31.674Z,76.11
2022-10-28T18:48:41.987Z,75.84
2022-10-28T18:51:50.664Z,76.57
2022-10-28T18:55:01.163Z,76.70
2022-10-28T18:58:11.665Z,76.42
2022-10-28T19:01:25.419Z,76.18
2022-10-28T19:04:34.169Z,75.90
2022-10-28T19:07:42.748Z,76.28
2022-10-28T19:10:58.333Z,76.12
2022-10-28T19:14:08.501Z,76.23
2022-10-28T19:17:17.047Z,76.13
2022-10-28T19:20:26.085Z,75.71
2022-10-28T19:23:34.708Z,75.66
2022-10-28T19:26:44.690Z,75.71
2022-10-28T19:29:53.050Z,75.75
2022-10-28T19:33:01.599Z,75.38
2022-10-28T19:36:17.590Z,74.65
2022-10-28T19:40:06.798Z,74.11
2022-10-28T19:44:07.985Z,74.38
2022-10-28T19:48:05.290Z,74.48
2022-10-28T20:00:01.638Z,73.95
2022-10-28T20:03:21.356Z,73.81
2022-10-28T20:06:35.754Z,73.78
2022-10-28T20:09:44.239Z,73.20
2022-10-28T20:12:54.134Z,72.49
2022-10-28T20:16:42.669Z,72.21
2022-10-28T20:19:52.154Z,72.53
2022-10-28T20:23:00.833Z,70.39
2022-10-28T20:26:10.718Z,70.49
2022-10-28T20:29:19.512Z,72.34
2022-10-28T20:32:29.671Z,73.77
2022-10-28T20:35:38.172Z,72.77
2022-10-28T20:38:46.618Z,72.66
2022-10-28T20:41:55.186Z,73.89
2022-10-28T20:45:03.678Z,75.32
2022-10-28T20:48:13.539Z,75.48
2022-10-28T20:51:23.621Z,75.70
2022-10-28T20:54:32.442Z,74.64
2022-10-28T20:57:42.287Z,74.89
2022-10-28T21:06:00.076Z,74.03
2022-10-28T21:09:09.394Z,73.38
2022-10-28T21:12:17.879Z,73.23
2022-10-28T21:15:26.069Z,72.98
2022-10-28T21:18:38.600Z,71.89
2022-10-28T21:21:50.321Z,71.66
2022-10-28T21:24:59.014Z,71.44
2022-10-28T21:28:09.051Z,71.29
2022-10-28T21:31:19.056Z,71.48
2022-10-28T21:43:09.929Z,72.11
2022-10-28T21:46:26.875Z,71.29
2022-10-28T21:49:35.586Z,71.33
2022-10-28T21:52:44.058Z,70.16
2022-10-28T21:56:05.995Z,71.34
2022-10-28T22:03:10.227Z,69.33
2022-10-28T22:06:19.328Z,68.96
2022-10-28T22:09:27.652Z,66.95
2022-10-28T22:12:37.544Z,68.16
2022-10-28T22:15:45.993Z,68.45
2022-10-28T22:18:54.697Z,69.15
2022-10-28T22:22:03.230Z,69.30
2022-10-28T22:25:11.786Z,70.40
2022-10-28T22:28:21.531Z,70.67
2022-10-28T22:31:32.410Z,70.37
2022-10-28T22:34:40.596Z,70.61
2022-10-28T22:37:48.971Z,70.26
2022-10-28T22:41:05.809Z,70.39
2022-10-28T22:44:15.589Z,70.69
2022-10-28T22:47:24.163Z,70.34
2022-10-28T22:50:32.381Z,70.78
2022-10-28T22:53:41.494Z,70.95
2022-10-28T22:56:49.810Z,70.45
2022-10-28T22:59:59.370Z,69.70
2022-10-28T23:03:07.953Z,69.51
2022-10-28T23:06:19.671Z,69.74
2022-10-28T23:09:28.069Z,70.22
2022-10-28T23:12:36.642Z,70.13
2022-10-28T23:15:46.736Z,70.68
2022-10-28T23:18:55.396Z,71.04
2022-10-28T23:22:03.730Z,71.26
2022-10-28T23:25:12.206Z,71.37
2022-10-28T23:28:20.638Z,71.84
2022-10-28T23:31:30.468Z,72.08
2022-10-28T23:34:38.748Z,73.04
2022-10-28T23:37:46.965Z,73.19
2022-10-28T23:40:57.524Z,72.85
2022-10-28T23:44:06.158Z,73.86
2022-10-28T23:47:15.846Z,74.27
2022-10-28T23:50:24.057Z,74.39
2022-10-28T23:53:32.751Z,74.56
2022-10-28T23:56:41.200Z,74.70
2022-10-28T23:59:49.496Z,75.20
